NOAA Web Site Link Tides and Currents Home Page Transparent placeholder image

Parts of the U.S. Government are closed. However, because the information this site provides is necessary to protect life and property, it will be updated and maintained during the Federal Government shutdown. For critical weather information, please visit www.weather.gov. To learn more, see www.commerce.gov.

PORTS® Data Listing: 8557380 Lewes, DE

CO-OPS RAW PORTS DATA

************************      PRELIMINARY DATA      ************************** 

     THIS RAW DATA HAS NOT BEEN SUBJECT TO THE NATIONAL OCEAN SERVICE'S        
     QUALITY CONTROL OR QUALITY ASSURANCE PROCEDURES AND DOES NOT MEET         
     THE CRITERIA AND STANDARDS OF OFFICIAL NATIONAL OCEAN SERVICE             
     DATA.  IT IS RELEASED FOR LIMITED PUBLIC USE AS PRELIMINARY DATA TO       
     BE USED ONLY WITH APPROPRIATE CAUTION.                                    

************************      PRELIMINARY DATA      ************************** 


       CD   -   Calendar date
       T    -   Time
       TZ   -   Timezone
       PW   -   Predicted water level (feet above MLLW)
       OW   -   Observed water level (feet above MLLW)
       WS   -   Wind speed (knots)
       WD   -   Wind direction (degrees true)
       WG   -   Wind gust (knots)
       AT   -   Air temperature (degrees farenheit)
       WT   -   Water temperature (degrees farenheit)
       AP   -   Air pressure (millibars)
       SA   -   Salinty (PSU - Practical Salinity Units)
       SG   -   Specific gravity
       RH   -   Relative humidity
       AG   -   Air gap (feet)
       VI   -   Visibility (nautical miles)

       ** NOTE **
       A variable that has its data fields filled with "9"s, indicates that
       data was not collected for that sample period.
       **********


STATION NAME: Lewes (8557380)
****************************************************************************************************
    CD       T    TZ    PW     OW    WS   WD   WG    AT    WT    AP    SA    SG     RH    AG   VI
****************************************************************************************************
2019/01/20 08:48 EST    4.83   6.39    3  187    7  57.6  41.2  991.9 26.1  1.022 -99.9 -99.99 -9.99
2019/01/20 08:54 EST    4.75   6.40    7  193   13  57.7  41.2  991.7 26.1  1.022 -99.9 -99.99 -9.99
2019/01/20 09:00 EST    4.67   6.35    9  195   18  57.7  41.2  991.7 26.1  1.022 -99.9 -99.99 -9.99
2019/01/20 09:06 EST    4.58   6.21    8  231   11  57.7  41.2  991.9 26.1  1.022 -99.9 -99.99 -9.99
2019/01/20 09:12 EST    4.48   6.17    7  228   11  57.9  41.2  991.8 26.1  1.022 -99.9 -99.99 -9.99
2019/01/20 09:18 EST    4.38   6.02    9  234   13  58.3  41.2  991.6 26.1  1.022 -99.9 -99.99 -9.99
2019/01/20 09:24 EST    4.27   5.89    6  226   12  58.3  41.4  991.7 26.1  1.021 -99.9 -99.99 -9.99
2019/01/20 09:30 EST    4.16   5.82    9  231   13  58.5  41.2  991.4 26.1  1.022 -99.9 -99.99 -9.99
2019/01/20 09:36 EST    4.04   5.68    7  233   11  58.5  41.4  991.7 26.0  1.021 -99.9 -99.99 -9.99
2019/01/20 09:42 EST    3.92   5.54    7  240   12  58.5  41.4  991.5 26.1  1.021 -99.9 -99.99 -9.99
2019/01/20 09:48 EST    3.80   5.45    7  245   12  58.6  41.4  991.1 26.1  1.022 -99.9 -99.99 -9.99
2019/01/20 09:54 EST    3.67   5.29   10  244   17  59.2  41.4  991.5 26.1  1.022 -99.9 -99.99 -9.99
2019/01/20 10:00 EST    3.53   5.10   12  255   17  59.5  41.4  991.7 26.1  1.022 -99.9 -99.99 -9.99
2019/01/20 10:06 EST    3.40   4.94   14  258   21  60.1  41.4  991.8 26.1  1.022 -99.9 -99.99 -9.99
2019/01/20 10:12 EST    3.25   4.80   15  258   27  59.9  41.4  992.0 26.1  1.022 -99.9 -99.99 -9.99
2019/01/20 10:18 EST    3.11   4.70   22  265   31  60.1  41.4  992.2 26.1  1.022 -99.9 -99.99 -9.99
2019/01/20 10:24 EST    2.96   4.55   16  263   24  59.7  41.4  992.1 26.1  1.022 -99.9 -99.99 -9.99
2019/01/20 10:30 EST    2.81   4.40   16  269   24  59.4  41.4  992.2 26.2  1.022 -99.9 -99.99 -9.99
2019/01/20 10:36 EST    2.66   4.22   17  263   25  59.2  41.4  992.3 26.2  1.022 -99.9 -99.99 -9.99
2019/01/20 10:42 EST    2.51   4.07   17  274   22  58.5  41.4  992.5 26.2  1.022 -99.9 -99.99 -9.99
2019/01/20 10:48 EST    2.36   3.95   31  287   40  52.0  41.4  993.3 26.2  1.022 -99.9 -99.99 -9.99
2019/01/20 10:54 EST    2.20   3.97   24  290   29  51.3  41.4  993.4 26.2  1.022 -99.9 -99.99 -9.99
2019/01/20 11:00 EST    2.05   3.80   24  293   30  50.2  41.4  993.4 26.3  1.022 -99.9 -99.99 -9.99
2019/01/20 11:06 EST    1.89   3.59   29  299   35  49.3  41.4  993.4 26.3  1.022 -99.9 -99.99 -9.99
2019/01/20 11:12 EST    1.74   3.44   25  296   31  48.4  41.4  993.4 26.3  1.022 -99.9 -99.99 -9.99
2019/01/20 11:18 EST    1.59   3.24   25  292   30  48.2  41.4  993.8 26.3  1.022 -99.9 -99.99 -9.99
2019/01/20 11:24 EST    1.44   3.01   32  300   38  47.3  41.4  993.8 26.3  1.022 -99.9 -99.99 -9.99
2019/01/20 11:30 EST    1.29   2.88   29  299   37  46.4  41.4  994.0 26.4  1.022 -99.9 -99.99 -9.99
2019/01/20 11:36 EST    1.14   2.77   29  295   33  45.3  41.4  994.3 26.4  1.022 -99.9 -99.99 -9.99
2019/01/20 11:42 EST    1.00   2.69   28  298   33  45.1  41.5  994.4 26.4  1.022 -99.9 -99.99 -9.99
2019/01/20 11:48 EST    0.86   2.48   27  298   33  45.1  41.5  994.4 26.5  1.022 -99.9 -99.99 -9.99
2019/01/20 11:54 EST    0.72   2.20   29  304   35  45.0  41.7  994.5 26.4  1.022 -99.9 -99.99 -9.99
2019/01/20 12:00 EST    0.59   1.98   24  303   32  44.8  41.7  994.4 26.4  1.022 -99.9 -99.99 -9.99
2019/01/20 12:06 EST    0.46   1.90   28  306   33  45.0  41.7  994.1 26.4  1.022 -99.9 -99.99 -9.99
2019/01/20 12:12 EST    0.34   1.83   27  302   33  44.8  41.7  994.2 26.4  1.022 -99.9 -99.99 -9.99
2019/01/20 12:18 EST    0.22   1.72   24  304   29  44.8  41.7  994.3 26.5  1.022 -99.9 -99.99 -9.99
2019/01/20 12:24 EST    0.11   1.60   24  304   28  44.6  41.9  994.5 26.4  1.022 -99.9 -99.99 -9.99
2019/01/20 12:30 EST    0.01   1.43   27  305   32  44.8  41.7  994.4 26.5  1.022 -99.9 -99.99 -9.99
2019/01/20 12:36 EST   -0.09   1.34   23  308   30  44.6  41.5  994.6 26.4  1.022 -99.9 -99.99 -9.99
2019/01/20 12:42 EST   -0.18   1.26   22  313   25  44.6  41.5  994.6 26.4  1.022 -99.9 -99.99 -9.99
2019/01/20 12:48 EST   -0.27   1.24   28  313   35  44.8  41.5  994.7 26.4  1.022 -99.9 -99.99 -9.99
2019/01/20 12:54 EST   -0.34   1.23   29  311   35  44.6  41.4  994.7 26.4  1.022 -99.9 -99.99 -9.99
2019/01/20 13:00 EST   -0.41   1.16   29  317   35  44.2  41.4  994.8 26.4  1.022 -99.9 -99.99 -9.99
2019/01/20 13:06 EST   -0.48   1.10   28  316   35  44.1  41.4  995.0 26.4  1.022 -99.9 -99.99 -9.99
2019/01/20 13:12 EST   -0.53   0.98   30  318   37  43.9  41.4  995.1 26.4  1.022 -99.9 -99.99 -9.99
2019/01/20 13:18 EST   -0.58   0.93   28  320   33  43.7  41.5  995.1 26.3  1.022 -99.9 -99.99 -9.99
2019/01/20 13:24 EST   -0.62   0.81   28  318   32  43.5  41.5  995.2 26.4  1.022 -99.9 -99.99 -9.99
2019/01/20 13:30 EST   -0.66   0.72   26  316   35  43.3  41.7  995.2 26.4  1.022 -99.9 -99.99 -9.99
2019/01/20 13:36 EST   -0.68   0.69   31  316   37  43.3  41.7  995.4 26.4  1.022 -99.9 -99.99 -9.99
2019/01/20 13:42 EST   -0.70   0.67   27  317   34  43.0  41.7  995.5 26.4  1.022 -99.9 -99.99 -9.99
2019/01/20 13:48 EST   -0.71   0.65   26  318   31  42.6  41.7  995.6 26.4  1.022 -99.9 -99.99 -9.99
2019/01/20 13:54 EST   -0.71   0.67   30  320   36  42.3  41.7  995.7 26.4  1.022 -99.9 -99.99 -9.99
2019/01/20 14:00 EST   -0.71   0.66   32  312   38  41.7  41.7  996.0 26.4  1.022 -99.9 -99.99 -9.99
2019/01/20 14:06 EST   -0.70   0.73   32  320   38  41.0  41.5  996.3 26.5  1.022 -99.9 -99.99 -9.99
2019/01/20 14:12 EST   -0.68   0.72   29  323   36  40.5  41.5  996.4 26.5  1.022 -99.9 -99.99 -9.99
2019/01/20 14:18 EST   -0.66   0.70   31  327   36  39.9  41.5  996.7 26.5  1.022 -99.9 -99.99 -9.99
2019/01/20 14:24 EST   -0.63   0.67   29  324   34  39.6  41.5  997.0 26.5  1.022 -99.9 -99.99 -9.99
2019/01/20 14:30 EST   -0.59   0.63   27  325   34  39.6  41.7  997.2 26.4  1.022 -99.9 -99.99 -9.99
2019/01/20 14:36 EST   -0.55   0.56   29  318   34  39.2  41.7  997.4 26.4  1.022 -99.9 -99.99 -9.99
2019/01/20 14:42 EST   -0.50   0.55   28  324   32  38.8  41.7  997.5 26.4  1.022 -99.9 -99.99 -9.99
2019/01/20 14:48 EST   -0.45   0.51   31  320   37  38.5  41.7  997.5 26.4  1.022 -99.9 -99.99 -9.99
2019/01/20 14:54 EST   -0.39   0.58   31  321   40  38.3  41.7  997.8 26.4  1.022 -99.9 -99.99 -9.99
2019/01/20 15:00 EST   -0.33   0.53   34  314   39  37.8  41.7  998.2 26.4  1.022 -99.9 -99.99 -9.99
2019/01/20 15:06 EST   -0.26   0.62   29  316   35  38.1  41.7  998.5 26.4  1.022 -99.9 -99.99 -9.99
2019/01/20 15:12 EST   -0.19   0.63   32  321   37  37.8  41.7  998.8 26.4  1.022 -99.9 -99.99 -9.99
2019/01/20 15:18 EST   -0.11   0.57   28  324   35  37.6  41.5  999.0 26.5  1.022 -99.9 -99.99 -9.99
2019/01/20 15:24 EST   -0.03   0.69   31  319   36  37.2  41.5  999.1 26.5  1.022 -99.9 -99.99 -9.99
2019/01/20 15:30 EST    0.06   0.77   29  325   35  37.0  41.5  999.2 26.5  1.022 -99.9 -99.99 -9.99
2019/01/20 15:36 EST    0.15   0.86   29  328   36  37.4  41.5  999.1 26.5  1.022 -99.9 -99.99 -9.99
2019/01/20 15:42 EST    0.24   1.06   32  321   36  37.2  41.5  999.3 26.6  1.022 -99.9 -99.99 -9.99
2019/01/20 15:48 EST    0.33   1.22   31  317   37  36.9  41.5  999.5 26.6  1.022 -99.9 -99.99 -9.99
2019/01/20 15:54 EST    0.43   1.28   31  319   37  36.5  41.5  999.8 26.6  1.022 -99.9 -99.99 -9.99
2019/01/20 16:00 EST    0.54   1.45   34  319   41  35.8  41.5  999.9 26.6  1.022 -99.9 -99.99 -9.99
2019/01/20 16:06 EST    0.64   1.60   37  322   43  35.4  41.5  999.8 26.6  1.022 -99.9 -99.99 -9.99
2019/01/20 16:12 EST    0.75   1.69   31  331   41  35.4  41.5 1000.0 26.5  1.022 -99.9 -99.99 -9.99
2019/01/20 16:18 EST    0.86   1.81   31  321   38  35.8  41.5 1000.2 26.5  1.022 -99.9 -99.99 -9.99
2019/01/20 16:24 EST    0.97   1.89   33  324   42  35.2  41.5 1000.8 26.5  1.022 -99.9 -99.99 -9.99
2019/01/20 16:30 EST    1.08   1.98   29  329   35  35.2  41.5 1000.9 26.5  1.022 -99.9 -99.99 -9.99
2019/01/20 16:36 EST    1.19   2.11   30  325   36  34.9  41.4 1001.0 26.6  1.022 -99.9 -99.99 -9.99
2019/01/20 16:42 EST    1.31   2.22   34  325   41  34.9  41.4 1001.2 26.6  1.022 -99.9 -99.99 -9.99
2019/01/20 16:48 EST    1.42   2.33   32  323   37  34.7  41.4 1001.5 26.6  1.022 -99.9 -99.99 -9.99
2019/01/20 16:54 EST    1.54   2.48   34  327   42  34.3  41.4 1001.8 26.6  1.022 -99.9 -99.99 -9.99
2019/01/20 17:00 EST    1.66   2.56   30  331   38  34.0  41.4 1002.0 26.6  1.022 -99.9 -99.99 -9.99
2019/01/20 17:06 EST    1.78   2.74   30  329   36  34.0  41.4 1002.2 26.6  1.022 -99.9 -99.99 -9.99
2019/01/20 17:12 EST    1.89   2.80   29  323   34  34.0  41.4 1002.4 26.6  1.022 -99.9 -99.99 -9.99
2019/01/20 17:18 EST    2.01   2.94   29  315   35  33.8  41.4 1002.7 26.6  1.022 -99.9 -99.99 -9.99
2019/01/20 17:24 EST    2.12   2.90   35  321   44  33.6  41.4 1003.0 26.5  1.022 -99.9 -99.99 -9.99
2019/01/20 17:30 EST    2.24   3.17   32  330   39  32.9  41.2 1003.1 26.6  1.022 -99.9 -99.99 -9.99
2019/01/20 17:36 EST    2.35   3.18   29  330   36  33.3  41.2 1003.0 26.6  1.022 -99.9 -99.99 -9.99
2019/01/20 17:42 EST    2.46   3.30   31  326   41  32.7  41.2 1003.3 26.6  1.022 -99.9 -99.99 -9.99
2019/01/20 17:48 EST    2.57   3.38   31  328   44  32.5  41.2 1003.4 26.6  1.022 -99.9 -99.99 -9.99
2019/01/20 17:54 EST    2.68   3.47   31  327   39  32.5  41.2 1003.6 26.6  1.022 -99.9 -99.99 -9.99
2019/01/20 18:00 EST    2.78   3.51   27  331   32  32.0  41.2 1003.9 26.6  1.022 -99.9 -99.99 -9.99
2019/01/20 18:06 EST    2.88   3.59   26  323   32  32.9  41.2 1004.2 26.6  1.022 -99.9 -99.99 -9.99
2019/01/20 18:12 EST    2.98   3.67   29  325   35  31.8  41.2 1004.3 26.6  1.022 -99.9 -99.99 -9.99
2019/01/20 18:18 EST    3.08   3.63   30  316   35  31.5  41.2 1004.3 26.6  1.022 -99.9 -99.99 -9.99
2019/01/20 18:24 EST    3.17   3.63   33  316   42  31.6  41.2 1004.6 26.6  1.022 -99.9 -99.99 -9.99
2019/01/20 18:30 EST    3.25   3.73   32  317   38  31.3  41.2 1004.7 26.6  1.022 -99.9 -99.99 -9.99
2019/01/20 18:36 EST    3.34   3.79   33  320   39  31.3  41.0 1004.8 26.6  1.022 -99.9 -99.99 -9.99
2019/01/20 18:42 EST    3.41   3.83   33  313   40  31.1  41.0 1005.0 26.6  1.022 -99.9 -99.99 -9.99
2019/01/20 18:48 EST    3.49   3.95   30  314   38  31.1  41.0 1005.3 26.6  1.022 -99.9 -99.99 -9.99
2019/01/20 18:54 EST    3.55   3.99   33  317   40  30.6  41.0 1005.4 26.6  1.022 -99.9 -99.99 -9.99
2019/01/20 19:00 EST    3.62   4.14   35  313   42  30.2  41.0 1005.6 26.6  1.022 -99.9 -99.99 -9.99
2019/01/20 19:06 EST    3.67   4.17   34  315   41  30.0  41.0 1005.8 26.6  1.022 -99.9 -99.99 -9.99
2019/01/20 19:12 EST    3.73   4.28   35  316   43  29.7  41.0 1006.0 26.6  1.022 -99.9 -99.99 -9.99
2019/01/20 19:18 EST    3.77   4.24   35  318   41  29.7  41.0 1006.2 26.6  1.022 -99.9 -99.99 -9.99
2019/01/20 19:24 EST    3.81   4.21   33  314   38  29.8  41.0 1006.5 26.6  1.022 -99.9 -99.99 -9.99
2019/01/20 19:30 EST    3.85   4.25   32  315   39  29.8  41.0 1006.8 26.6  1.022 -99.9 -99.99 -9.99
2019/01/20 19:36 EST    3.88   4.27   31  323   38  29.8  41.0 1006.8 26.6  1.022 -99.9 -99.99 -9.99
2019/01/20 19:42 EST    3.90   4.25   24  327   37  30.0  41.0 1006.7 26.6  1.022 -99.9 -99.99 -9.99
2019/01/20 19:48 EST    3.92   4.24   34  315   40  29.1  41.0 1006.4 26.6  1.022 -99.9 -99.99 -9.99
2019/01/20 19:54 EST    3.93   4.20   24  314   35  29.5  41.0 1006.9 26.6  1.022 -99.9 -99.99 -9.99
2019/01/20 20:00 EST    3.93   4.14   30  318   37  28.8  41.0 1007.3 26.6  1.022 -99.9 -99.99 -9.99
2019/01/20 20:06 EST    3.93   4.09   27  321   36  28.9  41.0 1007.4 26.6  1.022 -99.9 -99.99 -9.99
2019/01/20 20:12 EST    3.93   4.03   31  312   37  28.4  40.8 1007.6 26.7  1.022 -99.9 -99.99 -9.99
2019/01/20 20:18 EST    3.91   4.11   35  320   41  27.9  40.8 1007.9 26.6  1.022 -99.9 -99.99 -9.99
2019/01/20 20:24 EST    3.89   4.11   32  319   38  28.0  40.8 1007.9 26.6  1.022 -99.9 -99.99 -9.99
2019/01/20 20:30 EST    3.87   4.10   31  317   38  27.3  40.8 1008.1 26.6  1.022 -99.9 -99.99 -9.99
2019/01/20 20:36 EST    3.84   3.98   32  315   38  27.7  40.8 1008.2 26.6  1.022 -99.9 -99.99 -9.99
2019/01/20 20:42 EST    3.80   4.02   31  318   38  27.7  40.6 1008.6 26.7  1.022 -99.9 -99.99 -9.99
2019/01/20 20:48 EST    3.76   4.04   31  326   38  27.0  40.6 1008.6 26.6  1.022 -99.9 -99.99 -9.99
2019/01/20 20:54 EST    3.71   4.01   32  313   37  27.5  40.6 1008.5 26.6  1.022 -99.9 -99.99 -9.99
2019/01/20 21:00 EST    3.66   3.88   31  321   39  27.1  40.5 1008.7 26.7  1.022 -99.9 -99.99 -9.99
2019/01/20 21:06 EST    3.60   3.88   31  322   38  26.6  40.5 1008.8 26.7  1.022 -99.9 -99.99 -9.99
2019/01/20 21:12 EST    3.53   3.91   27  317   33  27.1  40.5 1009.0 26.7  1.022 -99.9 -99.99 -9.99
2019/01/20 21:18 EST    3.46   3.90   30  319   37  26.6  40.5 1009.1 26.7  1.022 -99.9 -99.99 -9.99
2019/01/20 21:24 EST    3.39   3.85   32  327   41  26.2  40.5 1009.2 26.7  1.022 -99.9 -99.99 -9.99
2019/01/20 21:30 EST    3.31   3.85   30  330   36  26.1  40.5 1009.3 26.6  1.022 -99.9 -99.99 -9.99
2019/01/20 21:36 EST    3.22   3.75   32  318   39  26.4  40.5 1009.5 26.6  1.022 -99.9 -99.99 -9.99
2019/01/20 21:42 EST    3.13   3.71   31  318   37  26.1  40.3 1009.8 26.6  1.022 -99.9 -99.99 -9.99
2019/01/20 21:48 EST    3.04   3.68   31  321   37  25.5  40.3 1009.9 26.6  1.022 -99.9 -99.99 -9.99
2019/01/20 21:54 EST    2.94   3.57   31  319   37  25.7  40.3 1010.0 26.6  1.022 -99.9 -99.99 -9.99
2019/01/20 22:00 EST    2.83   3.48   33  320   38  25.2  40.3 1010.1 26.6  1.022 -99.9 -99.99 -9.99
2019/01/20 22:06 EST    2.72   3.36   35  318   40  24.8  40.3 1010.4 26.5  1.022 -99.9 -99.99 -9.99
2019/01/20 22:12 EST    2.61   3.26   34  322   41  24.3  40.3 1010.6 26.5  1.022 -99.9 -99.99 -9.99
2019/01/20 22:18 EST    2.50   3.10   32  314   38  24.3  40.1 1010.6 26.6  1.022 -99.9 -99.99 -9.99
2019/01/20 22:24 EST    2.38   2.95   36  316   43  23.9  40.1 1010.7 26.5  1.022 -99.9 -99.99 -9.99
2019/01/20 22:30 EST    2.25   2.73   33  317   40  24.3  40.1 1010.9 26.5  1.022 -99.9 -99.99 -9.99
2019/01/20 22:36 EST    2.13   2.61   31  313   37  23.9  39.9 1011.2 26.5  1.022 -99.9 -99.99 -9.99
2019/01/20 22:42 EST    2.00   2.48   32  315   39  23.5  39.9 1011.3 26.4  1.022 -99.9 -99.99 -9.99
2019/01/20 22:48 EST    1.87   2.36   36  308   43  23.4  39.9 1011.3 26.4  1.022 -99.9 -99.99 -9.99
2019/01/20 22:54 EST    1.74   2.35   34  315   40  23.2  39.9 1011.6 26.4  1.022 -99.9 -99.99 -9.99
2019/01/20 23:00 EST    1.61   2.17   34  309   42  23.5  39.7 1011.8 26.4  1.022 -99.9 -99.99 -9.99
2019/01/20 23:06 EST    1.47   1.98   37  309   44  23.2  39.7 1011.8 26.3  1.022 -99.9 -99.99 -9.99
2019/01/20 23:12 EST    1.34   1.88   37  313   45  23.2  39.7 1012.0 26.3  1.022 -99.9 -99.99 -9.99
2019/01/20 23:18 EST    1.21   1.78   36  318   45  23.0  39.7 1012.0 26.3  1.022 -99.9 -99.99 -9.99
2019/01/20 23:24 EST    1.07   1.72   35  324   42  22.8  39.7 1011.9 26.3  1.022 -99.9 -99.99 -9.99
2019/01/20 23:30 EST    0.94   1.49   32  315   38  23.0  39.6 1012.1 26.3  1.022 -99.9 -99.99 -9.99
2019/01/20 23:36 EST    0.81   1.45   33  317   42  22.6  39.6 1012.1 26.2  1.022 -99.9 -99.99 -9.99
2019/01/20 23:42 EST    0.67   1.20   34  320   39  22.8  39.4 1012.1 26.3  1.022 -99.9 -99.99 -9.99
2019/01/20 23:48 EST    0.55   0.97   31  322   38  22.5  39.4 1012.3 26.2  1.022 -99.9 -99.99 -9.99
2019/01/20 23:54 EST    0.42   0.79   32  320   38  22.5  39.4 1012.3 26.2  1.022 -99.9 -99.99 -9.99
2019/01/21 00:00 EST    0.30   0.70   31  310   38  22.6  39.2 1012.5 26.2  1.022 -99.9 -99.99 -9.99
2019/01/21 00:06 EST    0.18   0.63   33  311   39  22.5  39.2 1012.7 26.2  1.022 -99.9 -99.99 -9.99
2019/01/21 00:12 EST    0.06   0.48   37  312   46  22.6  39.0 1012.9 26.2  1.022 -99.9 -99.99 -9.99
2019/01/21 00:18 EST   -0.05   0.50   29  315   40  23.5  39.0 1013.0 26.2  1.022 -99.9 -99.99 -9.99
2019/01/21 00:24 EST   -0.16   0.38   32  311   39  22.3  38.8 1013.1 26.2  1.022 -99.9 -99.99 -9.99
2019/01/21 00:30 EST   -0.26   0.37   37  321   46  21.9  38.8 1013.2 26.1  1.022 -99.9 -99.99 -9.99
2019/01/21 00:36 EST   -0.35   0.24   35  319   43  21.9  38.8 1013.4 26.1  1.022 -99.9 -99.99 -9.99
2019/01/21 00:42 EST   -0.44   0.14   31  320   37  21.6  38.7 1013.7 26.1  1.022 -99.9 -99.99 -9.99
2019/01/21 00:48 EST   -0.52  -0.14   29  312   38  21.6  38.7 1013.8 26.1  1.022 -99.9 -99.99 -9.99
2019/01/21 00:54 EST   -0.60  -0.31   32  311   37  20.8  38.7 1013.6 26.1  1.022 -99.9 -99.99 -9.99
2019/01/21 01:00 EST   -0.67  -0.28   33  307   39  20.5  38.5 1013.9 26.1  1.022 -99.9 -99.99 -9.99
2019/01/21 01:06 EST   -0.73  -0.28   34  309   39  20.5  38.5 1014.0 26.0  1.022 -99.9 -99.99 -9.99
2019/01/21 01:12 EST   -0.78  -0.35   34  308   44  20.8  38.5 1014.1 26.0  1.022 -99.9 -99.99 -9.99
2019/01/21 01:18 EST   -0.83  -0.46   36  308   43  20.3  38.7 1014.1 25.9  1.022 -99.9 -99.99 -9.99
2019/01/21 01:24 EST   -0.87  -0.45   34  312   41  20.3  38.7 1014.2 26.0  1.022 -99.9 -99.99 -9.99
2019/01/21 01:30 EST   -0.90  -0.51   32  312   38  20.5  38.8 1014.5 25.9  1.022 -99.9 -99.99 -9.99
2019/01/21 01:36 EST   -0.92  -0.50   31  308   37  20.3  38.7 1014.6 25.9  1.022 -99.9 -99.99 -9.99
2019/01/21 01:42 EST   -0.94  -0.54   30  313   36  19.8  38.7 1014.8 25.9  1.021 -99.9 -99.99 -9.99
2019/01/21 01:48 EST   -0.95  -0.63   29  311   34  19.9  38.7 1014.8 25.9  1.021 -99.9 -99.99 -9.99
2019/01/21 01:54 EST   -0.94  -0.73   30  302   38  19.6  38.7 1014.9 25.9  1.021 -99.9 -99.99 -9.99
2019/01/21 02:00 EST   -0.94  -0.73   32  313   41  19.9  38.5 1015.1 25.9  1.022 -99.9 -99.99 -9.99
2019/01/21 02:06 EST   -0.92  -0.54   34  316   42  19.4  38.5 1015.2 25.9  1.021 -99.9 -99.99 -9.99
2019/01/21 02:12 EST   -0.89  -0.50   29  312   36  19.6  38.5 1015.3 25.9  1.021 -99.9 -99.99 -9.99
2019/01/21 02:18 EST   -0.86  -0.45   31  301   37  18.5  38.5 1015.2 25.8  1.021 -99.9 -99.99 -9.99
2019/01/21 02:24 EST   -0.82  -0.55   30  304   36  18.5  38.5 1015.3 25.8  1.021 -99.9 -99.99 -9.99
2019/01/21 02:30 EST   -0.78  -0.52   31  306   38  18.9  38.5 1015.4 25.8  1.021 -99.9 -99.99 -9.99
2019/01/21 02:36 EST   -0.72 -99.99 -999 -999 -999 -99.9 -99.9 -999.9 -9.9 -9.999 -99.9 -99.99 -9.99
2019/01/21 02:42 EST   -0.66 -99.99 -999 -999 -999 -99.9 -99.9 -999.9 -9.9 -9.999 -99.9 -99.99 -9.99
2019/01/21 02:48 EST   -0.59 -99.99 -999 -999 -999 -99.9 -99.9 -999.9 -9.9 -9.999 -99.9 -99.99 -9.99
2019/01/21 02:54 EST   -0.52 -99.99 -999 -999 -999 -99.9 -99.9 -999.9 -9.9 -9.999 -99.9 -99.99 -9.99
2019/01/21 03:00 EST   -0.44 -99.99 -999 -999 -999 -99.9 -99.9 -999.9 -9.9 -9.999 -99.9 -99.99 -9.99
2019/01/21 03:06 EST   -0.35 -99.99 -999 -999 -999 -99.9 -99.9 -999.9 -9.9 -9.999 -99.9 -99.99 -9.99
2019/01/21 03:12 EST   -0.26 -99.99 -999 -999 -999 -99.9 -99.9 -999.9 -9.9 -9.999 -99.9 -99.99 -9.99
2019/01/21 03:18 EST   -0.16 -99.99 -999 -999 -999 -99.9 -99.9 -999.9 -9.9 -9.999 -99.9 -99.99 -9.99
2019/01/21 03:24 EST   -0.06 -99.99 -999 -999 -999 -99.9 -99.9 -999.9 -9.9 -9.999 -99.9 -99.99 -9.99
2019/01/21 03:30 EST    0.05 -99.99 -999 -999 -999 -99.9 -99.9 -999.9 -9.9 -9.999 -99.9 -99.99 -9.99
2019/01/21 03:36 EST    0.16 -99.99 -999 -999 -999 -99.9 -99.9 -999.9 -9.9 -9.999 -99.9 -99.99 -9.99
2019/01/21 03:42 EST    0.27 -99.99 -999 -999 -999 -99.9 -99.9 -999.9 -9.9 -9.999 -99.9 -99.99 -9.99
2019/01/21 03:48 EST    0.39 -99.99 -999 -999 -999 -99.9 -99.9 -999.9 -9.9 -9.999 -99.9 -99.99 -9.99
2019/01/21 03:54 EST    0.52 -99.99 -999 -999 -999 -99.9 -99.9 -999.9 -9.9 -9.999 -99.9 -99.99 -9.99
2019/01/21 04:00 EST    0.64 -99.99 -999 -999 -999 -99.9 -99.9 -999.9 -9.9 -9.999 -99.9 -99.99 -9.99
2019/01/21 04:06 EST    0.77 -99.99 -999 -999 -999 -99.9 -99.9 -999.9 -9.9 -9.999 -99.9 -99.99 -9.99
2019/01/21 04:12 EST    0.91 -99.99 -999 -999 -999 -99.9 -99.9 -999.9 -9.9 -9.999 -99.9 -99.99 -9.99
2019/01/21 04:18 EST    1.04 -99.99 -999 -999 -999 -99.9 -99.9 -999.9 -9.9 -9.999 -99.9 -99.99 -9.99
2019/01/21 04:24 EST    1.18 -99.99 -999 -999 -999 -99.9 -99.9 -999.9 -9.9 -9.999 -99.9 -99.99 -9.99
2019/01/21 04:30 EST    1.32 -99.99 -999 -999 -999 -99.9 -99.9 -999.9 -9.9 -9.999 -99.9 -99.99 -9.99
2019/01/21 04:36 EST    1.47 -99.99 -999 -999 -999 -99.9 -99.9 -999.9 -9.9 -9.999 -99.9 -99.99 -9.99
2019/01/21 04:42 EST    1.61 -99.99 -999 -999 -999 -99.9 -99.9 -999.9 -9.9 -9.999 -99.9 -99.99 -9.99
2019/01/21 04:48 EST    1.76 -99.99 -999 -999 -999 -99.9 -99.9 -999.9 -9.9 -9.999 -99.9 -99.99 -9.99
2019/01/21 04:54 EST    1.91 -99.99 -999 -999 -999 -99.9 -99.9 -999.9 -9.9 -9.999 -99.9 -99.99 -9.99
2019/01/21 05:00 EST    2.05 -99.99 -999 -999 -999 -99.9 -99.9 -999.9 -9.9 -9.999 -99.9 -99.99 -9.99
2019/01/21 05:06 EST    2.20 -99.99 -999 -999 -999 -99.9 -99.9 -999.9 -9.9 -9.999 -99.9 -99.99 -9.99
2019/01/21 05:12 EST    2.35 -99.99 -999 -999 -999 -99.9 -99.9 -999.9 -9.9 -9.999 -99.9 -99.99 -9.99
2019/01/21 05:18 EST    2.50 -99.99 -999 -999 -999 -99.9 -99.9 -999.9 -9.9 -9.999 -99.9 -99.99 -9.99
2019/01/21 05:24 EST    2.65 -99.99 -999 -999 -999 -99.9 -99.9 -999.9 -9.9 -9.999 -99.9 -99.99 -9.99
2019/01/21 05:30 EST    2.80 -99.99 -999 -999 -999 -99.9 -99.9 -999.9 -9.9 -9.999 -99.9 -99.99 -9.99
2019/01/21 05:36 EST    2.95 -99.99 -999 -999 -999 -99.9 -99.9 -999.9 -9.9 -9.999 -99.9 -99.99 -9.99
2019/01/21 05:42 EST    3.09 -99.99 -999 -999 -999 -99.9 -99.9 -999.9 -9.9 -9.999 -99.9 -99.99 -9.99
2019/01/21 05:48 EST    3.24 -99.99 -999 -999 -999 -99.9 -99.9 -999.9 -9.9 -9.999 -99.9 -99.99 -9.99
2019/01/21 05:54 EST    3.38 -99.99 -999 -999 -999 -99.9 -99.9 -999.9 -9.9 -9.999 -99.9 -99.99 -9.99
2019/01/21 06:00 EST    3.52 -99.99 -999 -999 -999 -99.9 -99.9 -999.9 -9.9 -9.999 -99.9 -99.99 -9.99
2019/01/21 06:06 EST    3.66 -99.99 -999 -999 -999 -99.9 -99.9 -999.9 -9.9 -9.999 -99.9 -99.99 -9.99
2019/01/21 06:12 EST    3.79 -99.99 -999 -999 -999 -99.9 -99.9 -999.9 -9.9 -9.999 -99.9 -99.99 -9.99
2019/01/21 06:18 EST    3.92 -99.99 -999 -999 -999 -99.9 -99.9 -999.9 -9.9 -9.999 -99.9 -99.99 -9.99
2019/01/21 06:24 EST    4.05 -99.99 -999 -999 -999 -99.9 -99.9 -999.9 -9.9 -9.999 -99.9 -99.99 -9.99
2019/01/21 06:30 EST    4.17 -99.99 -999 -999 -999 -99.9 -99.9 -999.9 -9.9 -9.999 -99.9 -99.99 -9.99
2019/01/21 06:36 EST    4.29 -99.99 -999 -999 -999 -99.9 -99.9 -999.9 -9.9 -9.999 -99.9 -99.99 -9.99
2019/01/21 06:42 EST    4.41 -99.99 -999 -999 -999 -99.9 -99.9 -999.9 -9.9 -9.999 -99.9 -99.99 -9.99
2019/01/21 06:48 EST    4.52 -99.99 -999 -999 -999 -99.9 -99.9 -999.9 -9.9 -9.999 -99.9 -99.99 -9.99
2019/01/21 06:54 EST    4.62 -99.99 -999 -999 -999 -99.9 -99.9 -999.9 -9.9 -9.999 -99.9 -99.99 -9.99
2019/01/21 07:00 EST    4.72 -99.99 -999 -999 -999 -99.9 -99.9 -999.9 -9.9 -9.999 -99.9 -99.99 -9.99
2019/01/21 07:06 EST    4.82 -99.99 -999 -999 -999 -99.9 -99.9 -999.9 -9.9 -9.999 -99.9 -99.99 -9.99
2019/01/21 07:12 EST    4.91 -99.99 -999 -999 -999 -99.9 -99.9 -999.9 -9.9 -9.999 -99.9 -99.99 -9.99
2019/01/21 07:18 EST    4.99 -99.99 -999 -999 -999 -99.9 -99.9 -999.9 -9.9 -9.999 -99.9 -99.99 -9.99
2019/01/21 07:24 EST    5.07 -99.99 -999 -999 -999 -99.9 -99.9 -999.9 -9.9 -9.999 -99.9 -99.99 -9.99
2019/01/21 07:30 EST    5.14 -99.99 -999 -999 -999 -99.9 -99.9 -999.9 -9.9 -9.999 -99.9 -99.99 -9.99
2019/01/21 07:36 EST    5.20 -99.99 -999 -999 -999 -99.9 -99.9 -999.9 -9.9 -9.999 -99.9 -99.99 -9.99
2019/01/21 07:42 EST    5.26 -99.99 -999 -999 -999 -99.9 -99.9 -999.9 -9.9 -9.999 -99.9 -99.99 -9.99
2019/01/21 07:48 EST    5.31 -99.99 -999 -999 -999 -99.9 -99.9 -999.9 -9.9 -9.999 -99.9 -99.99 -9.99
2019/01/21 07:54 EST    5.35 -99.99 -999 -999 -999 -99.9 -99.9 -999.9 -9.9 -9.999 -99.9 -99.99 -9.99
2019/01/21 08:00 EST    5.39 -99.99 -999 -999 -999 -99.9 -99.9 -999.9 -9.9 -9.999 -99.9 -99.99 -9.99
2019/01/21 08:06 EST    5.42 -99.99 -999 -999 -999 -99.9 -99.9 -999.9 -9.9 -9.999 -99.9 -99.99 -9.99
2019/01/21 08:12 EST    5.44 -99.99 -999 -999 -999 -99.9 -99.9 -999.9 -9.9 -9.999 -99.9 -99.99 -9.99
2019/01/21 08:18 EST    5.45 -99.99 -999 -999 -999 -99.9 -99.9 -999.9 -9.9 -9.999 -99.9 -99.99 -9.99
2019/01/21 08:24 EST    5.46 -99.99 -999 -999 -999 -99.9 -99.9 -999.9 -9.9 -9.999 -99.9 -99.99 -9.99
2019/01/21 08:30 EST    5.46 -99.99 -999 -999 -999 -99.9 -99.9 -999.9 -9.9 -9.999 -99.9 -99.99 -9.99
2019/01/21 08:36 EST    5.46 -99.99 -999 -999 -999 -99.9 -99.9 -999.9 -9.9 -9.999 -99.9 -99.99 -9.99
2019/01/21 08:42 EST    5.44 -99.99 -999 -999 -999 -99.9 -99.9 -999.9 -9.9 -9.999 -99.9 -99.99 -9.99
2019/01/21 08:48 EST    5.42 -99.99 -999 -999 -999 -99.9 -99.9 -999.9 -9.9 -9.999 -99.9 -99.99 -9.99

Revised: 08/08/2018
NOAA / National Ocean Service
Web site owner: Center for Operational Oceanographic Products and Services